Time;durP1;ratioP1;P1;durP2;ratioP2;P2;SDS_P1;SDS_P2;PMS_P1;PMS_P2;Temp;Humidity;BMP_temperature;BMP_pressure;BME280_temperature;BME280_humidity;BME280_pressure;Samples;Min_cycle;Max_cycle;Signal;HPM_P1;HPM_P2
2022/03/06 00:01:40;;;;;;;25.02;12.70;;;0.30;99.90;;;;;;5148689;27;20092;-70
2022/03/06 00:04:24;;;;;;;19.52;11.80;;;0.30;99.90;;;;;;5129466;27;20035;-70
2022/03/06 00:07:15;;;;;;;17.88;10.65;;;0.20;99.90;;;;;;5149204;27;20096;-70
2022/03/06 00:09:54;;;;;;;19.08;11.18;;;0.20;99.90;;;;;;5145131;27;20134;-69
2022/03/06 00:12:36;;;;;;;22.30;12.40;;;0.20;99.90;;;;;;5147617;27;20047;-69
2022/03/06 00:15:08;;;;;;;20.90;12.15;;;0.20;99.90;;;;;;5147897;27;20031;-69
2022/03/06 00:17:52;;;;;;;22.13;12.07;;;0.20;99.90;;;;;;5147346;27;20046;-69
2022/03/06 00:20:27;;;;;;;24.02;13.70;;;0.20;99.90;;;;;;5146180;27;20046;-70
2022/03/06 00:23:14;;;;;;;21.70;12.48;;;0.20;99.90;;;;;;5146309;27;20051;-70
2022/03/06 00:26:14;;;;;;;22.50;12.80;;;0.10;99.90;;;;;;5146262;27;20088;-70
2022/03/06 00:28:54;;;;;;;23.77;13.68;;;0.20;99.90;;;;;;5148000;27;20031;-70
2022/03/06 00:31:50;;;;;;;22.20;13.35;;;0.20;99.90;;;;;;5125460;27;20047;-69
2022/03/06 00:34:30;;;;;;;19.80;13.13;;;0.20;99.90;;;;;;5144693;27;20042;-69
2022/03/06 00:37:19;;;;;;;24.67;14.38;;;0.10;99.90;;;;;;5148153;27;20043;-69
2022/03/06 00:40:03;;;;;;;23.08;14.43;;;0.20;99.90;;;;;;5146715;27;20168;-70
2022/03/06 00:42:46;;;;;;;23.42;13.30;;;0.10;99.90;;;;;;5145638;27;20054;-70
2022/03/06 00:45:19;;;;;;;21.92;14.15;;;0.10;99.90;;;;;;5148750;27;21238;-70
2022/03/06 00:47:56;;;;;;;22.13;13.63;;;0.00;99.90;;;;;;5145925;27;20643;-70
2022/03/06 00:50:24;;;;;;;25.90;15.13;;;0.00;99.90;;;;;;5147631;27;20049;-70
2022/03/06 00:52:52;;;;;;;23.95;14.93;;;0.00;99.90;;;;;;5131968;27;20035;-70
2022/03/06 00:58:15;;;;;;;21.80;13.82;;;-0.10;99.90;;;;;;5141835;27;20042;-64
2022/03/06 01:00:48;;;;;;;25.00;15.10;;;-0.10;99.90;;;;;;5148100;27;20039;-64
2022/03/06 01:03:20;;;;;;;26.20;15.05;;;-0.10;99.90;;;;;;5129843;27;20077;-64
2022/03/06 01:05:46;;;;;;;22.38;14.63;;;-0.10;99.90;;;;;;5148673;27;20095;-64
2022/03/06 01:08:12;;;;;;;25.08;15.80;;;0.00;99.90;;;;;;5147463;27;20074;-64
2022/03/06 01:10:40;;;;;;;24.02;15.35;;;-0.20;99.90;;;;;;5146410;27;20459;-64
2022/03/06 01:13:12;;;;;;;22.33;14.60;;;-0.10;99.90;;;;;;5162862;27;20041;-64
2022/03/06 01:15:42;;;;;;;23.35;15.23;;;0.00;99.90;;;;;;5147367;27;20031;-64
2022/03/06 01:18:11;;;;;;;20.08;13.90;;;-0.20;99.90;;;;;;5129736;27;20125;-64
2022/03/06 01:20:39;;;;;;;21.33;14.63;;;-0.20;99.90;;;;;;5145859;27;20117;-66
2022/03/06 01:23:08;;;;;;;22.35;14.63;;;-0.20;99.90;;;;;;5144735;27;20046;-64
2022/03/06 01:25:35;;;;;;;23.27;14.98;;;-0.10;99.90;;;;;;5148838;27;20126;-64
2022/03/06 01:28:03;;;;;;;24.42;15.25;;;-0.10;99.90;;;;;;5146358;27;20035;-64
2022/03/06 01:30:32;;;;;;;22.42;13.95;;;0.00;99.90;;;;;;5147641;27;20027;-64
2022/03/06 01:33:04;;;;;;;22.27;14.88;;;0.00;99.90;;;;;;5151224;27;20090;-64
2022/03/06 01:35:30;;;;;;;26.02;15.85;;;0.00;99.90;;;;;;5152116;27;20105;-64
2022/03/06 01:37:58;;;;;;;23.65;14.93;;;0.10;99.90;;;;;;5150888;27;20034;-64
2022/03/06 01:40:30;;;;;;;25.42;15.23;;;0.00;99.90;;;;;;5150295;27;20087;-64
2022/03/06 01:42:56;;;;;;;20.60;14.80;;;0.00;99.90;;;;;;5132923;27;20057;-64
2022/03/06 01:45:23;;;;;;;23.15;14.50;;;-0.60;99.90;;;;;;5150589;27;20039;-64
2022/03/06 01:47:52;;;;;;;21.90;14.55;;;0.00;99.90;;;;;;5149751;27;20081;-64
2022/03/06 01:50:18;;;;;;;21.35;15.25;;;0.10;99.90;;;;;;5148284;27;20130;-63
2022/03/06 01:52:46;;;;;;;20.00;14.80;;;0.00;99.90;;;;;;5150841;27;20137;-64
2022/03/06 01:55:13;;;;;;;21.20;13.98;;;0.00;99.90;;;;;;5132151;27;20133;-64
2022/03/06 01:57:40;;;;;;;21.88;15.23;;;0.00;99.90;;;;;;5131637;27;20086;-64
2022/03/06 02:00:09;;;;;;;20.08;14.45;;;0.00;99.90;;;;;;5149008;27;20087;-64
2022/03/06 02:02:35;;;;;;;21.63;13.90;;;0.00;99.90;;;;;;5150048;27;20041;-64
2022/03/06 02:05:01;;;;;;;22.38;14.50;;;0.10;99.90;;;;;;5151283;27;20383;-64
2022/03/06 02:07:27;;;;;;;24.60;15.40;;;0.10;99.90;;;;;;5147077;27;20038;-64
2022/03/06 02:09:53;;;;;;;22.88;15.35;;;0.10;99.90;;;;;;5150220;27;20090;-64
2022/03/06 02:12:21;;;;;;;21.85;15.43;;;0.10;99.90;;;;;;5146194;27;20046;-64
2022/03/06 02:14:48;;;;;;;22.55;15.35;;;0.10;99.90;;;;;;5147022;27;20060;-64
2022/03/06 02:17:14;;;;;;;23.75;16.00;;;0.10;99.90;;;;;;5148481;27;20034;-64
2022/03/06 02:20:01;;;;;;;22.55;15.50;;;0.10;99.90;;;;;;5148239;27;20107;-64
2022/03/06 02:22:30;;;;;;;23.85;12.82;;;0.10;99.90;;;;;;5145198;27;20062;-64
2022/03/06 02:24:56;;;;;;;25.55;15.63;;;0.10;99.90;;;;;;5150168;27;20107;-64
2022/03/06 02:27:23;;;;;;;24.00;16.27;;;0.10;99.90;;;;;;5147617;27;20085;-64
2022/03/06 02:29:49;;;;;;;21.50;15.65;;;0.10;99.90;;;;;;5146588;27;20093;-64
2022/03/06 02:32:19;;;;;;;23.27;14.73;;;0.10;99.90;;;;;;5148631;27;20130;-64
2022/03/06 02:34:46;;;;;;;21.45;14.60;;;0.10;99.90;;;;;;5150992;27;20038;-64
2022/03/06 02:37:16;;;;;;;25.88;15.32;;;0.10;99.90;;;;;;5149911;27;20039;-64
2022/03/06 02:39:43;;;;;;;23.05;15.68;;;0.10;99.90;;;;;;5149207;27;20498;-64
2022/03/06 02:42:10;;;;;;;22.95;14.63;;;0.10;99.90;;;;;;5147596;27;20160;-64
2022/03/06 02:44:36;;;;;;;23.92;15.25;;;0.20;99.90;;;;;;5149131;27;20054;-64
2022/03/06 02:47:03;;;;;;;24.25;15.15;;;0.20;99.90;;;;;;5150293;27;20041;-64
2022/03/06 02:49:28;;;;;;;23.67;14.68;;;0.10;99.90;;;;;;5148573;27;20034;-64
2022/03/06 02:51:54;;;;;;;22.10;15.00;;;0.60;99.90;;;;;;5150009;27;20478;-64
2022/03/06 02:54:20;;;;;;;22.75;14.57;;;0.20;99.90;;;;;;5147402;27;20042;-64
2022/03/06 02:56:49;;;;;;;21.60;14.15;;;0.20;99.90;;;;;;5148067;27;20030;-64
2022/03/06 02:59:16;;;;;;;24.20;13.85;;;0.10;99.90;;;;;;5150701;27;20031;-64
2022/03/06 03:01:42;;;;;;;23.52;13.32;;;0.10;99.90;;;;;;5149411;27;20043;-64
2022/03/06 03:04:12;;;;;;;20.35;13.93;;;0.10;99.90;;;;;;5149705;27;20049;-64
2022/03/06 03:06:38;;;;;;;20.42;13.57;;;0.10;99.90;;;;;;5147390;27;20039;-64
2022/03/06 03:09:07;;;;;;;20.45;13.75;;;0.10;99.90;;;;;;5149922;27;20355;-64
2022/03/06 03:11:34;;;;;;;20.67;13.95;;;0.00;99.90;;;;;;5147886;27;20042;-64
2022/03/06 03:14:02;;;;;;;18.00;13.50;;;0.10;99.90;;;;;;5150548;27;20041;-64
2022/03/06 03:16:29;;;;;;;22.50;13.40;;;0.00;99.90;;;;;;5147643;27;20127;-64
2022/03/06 03:18:55;;;;;;;21.17;13.50;;;0.50;99.90;;;;;;5149809;27;20022;-64
2022/03/06 03:21:21;;;;;;;23.50;14.35;;;0.00;99.90;;;;;;5148321;27;20414;-64
2022/03/06 03:23:46;;;;;;;20.58;13.63;;;0.00;99.90;;;;;;5149622;27;20402;-64
2022/03/06 03:26:12;;;;;;;19.20;13.05;;;0.20;99.90;;;;;;5148542;27;20042;-64
2022/03/06 03:28:38;;;;;;;21.23;12.95;;;0.00;99.90;;;;;;5146374;27;20038;-64
2022/03/06 03:31:03;;;;;;;23.92;14.23;;;0.00;99.90;;;;;;5148515;27;20130;-64
2022/03/06 03:33:29;;;;;;;22.75;13.40;;;-0.10;99.90;;;;;;5148641;27;20027;-64
2022/03/06 03:35:56;;;;;;;18.65;12.82;;;0.00;99.90;;;;;;5147762;27;20039;-64
2022/03/06 03:38:22;;;;;;;19.05;12.85;;;-0.10;99.90;;;;;;5148096;27;20158;-64
2022/03/06 03:40:47;;;;;;;21.70;13.90;;;0.10;99.90;;;;;;5148947;27;20129;-64
2022/03/06 03:43:13;;;;;;;24.05;13.95;;;-0.10;99.90;;;;;;5147250;27;20046;-64
2022/03/06 03:45:39;;;;;;;23.75;14.05;;;-0.10;99.90;;;;;;5146424;27;20378;-64
2022/03/06 03:48:04;;;;;;;22.15;13.23;;;0.70;99.90;;;;;;5147679;27;20034;-64
2022/03/06 03:50:30;;;;;;;20.38;12.85;;;-0.10;99.90;;;;;;5148357;27;20042;-64
2022/03/06 03:52:56;;;;;;;21.15;13.35;;;0.00;99.90;;;;;;5149529;27;20062;-64
2022/03/06 03:55:21;;;;;;;22.15;14.40;;;0.00;99.90;;;;;;5147783;27;20061;-64
2022/03/06 03:57:47;;;;;;;21.20;13.43;;;-0.10;99.90;;;;;;5147867;27;20035;-64
2022/03/06 04:00:13;;;;;;;19.92;13.20;;;0.00;99.90;;;;;;5147254;27;20045;-64
2022/03/06 04:02:39;;;;;;;19.27;12.75;;;-0.10;99.90;;;;;;5148092;27;20053;-64
2022/03/06 04:05:05;;;;;;;20.20;13.10;;;-0.10;99.90;;;;;;5163619;27;20592;-64
2022/03/06 04:07:31;;;;;;;20.20;12.95;;;-0.20;99.90;;;;;;5148093;27;20078;-64
2022/03/06 04:09:56;;;;;;;20.33;12.88;;;-0.10;99.90;;;;;;5149173;27;20116;-64
2022/03/06 04:12:22;;;;;;;19.00;12.75;;;-0.20;99.90;;;;;;5149286;27;20031;-64
2022/03/06 04:14:48;;;;;;;18.30;12.40;;;0.10;99.90;;;;;;5148203;27;20043;-64
2022/03/06 04:17:13;;;;;;;17.88;12.95;;;0.20;99.90;;;;;;5147796;27;20394;-64
2022/03/06 04:19:39;;;;;;;19.15;13.02;;;-0.20;99.90;;;;;;5147832;27;20030;-64
2022/03/06 04:22:05;;;;;;;18.17;12.30;;;-0.20;99.90;;;;;;5146359;27;20143;-64
2022/03/06 04:24:31;;;;;;;18.08;11.55;;;-0.20;99.90;;;;;;5147278;27;20034;-64
2022/03/06 04:26:57;;;;;;;19.98;12.52;;;-0.10;99.90;;;;;;5148705;27;20394;-64
2022/03/06 04:29:23;;;;;;;18.15;12.18;;;-0.20;99.90;;;;;;5146711;27;20057;-64
2022/03/06 04:31:48;;;;;;;19.30;11.57;;;-0.20;99.90;;;;;;5149105;27;20042;-64
2022/03/06 04:34:14;;;;;;;14.95;9.73;;;-0.20;99.90;;;;;;5148771;27;20046;-64
2022/03/06 04:36:40;;;;;;;18.33;12.45;;;-0.20;99.90;;;;;;5147966;27;20031;-64
2022/03/06 04:39:06;;;;;;;20.55;12.23;;;-0.20;99.90;;;;;;5147074;27;20041;-64
2022/03/06 04:41:31;;;;;;;17.48;11.50;;;-0.20;99.90;;;;;;5146616;27;20868;-64
2022/03/06 04:43:57;;;;;;;19.30;12.70;;;-0.20;99.90;;;;;;5147458;27;20035;-64
2022/03/06 04:46:23;;;;;;;18.35;11.27;;;-0.20;99.90;;;;;;5149287;27;20386;-64
2022/03/06 04:48:49;;;;;;;17.25;11.10;;;-0.20;99.90;;;;;;5147416;27;20073;-64
2022/03/06 04:51:15;;;;;;;20.00;11.68;;;-0.20;99.90;;;;;;5147019;27;20140;-64
2022/03/06 04:53:41;;;;;;;20.40;13.52;;;-0.20;99.90;;;;;;5146102;27;20523;-64
2022/03/06 04:56:07;;;;;;;21.35;11.50;;;-0.30;99.90;;;;;;5148607;27;20049;-64
2022/03/06 04:58:33;;;;;;;18.42;11.85;;;-0.30;99.90;;;;;;5148049;27;20114;-64
2022/03/06 05:00:58;;;;;;;18.33;11.48;;;-0.30;99.90;;;;;;5148782;27;20053;-64
2022/03/06 05:03:24;;;;;;;20.70;11.60;;;-0.30;99.90;;;;;;5148310;27;20031;-64
2022/03/06 05:05:50;;;;;;;17.02;11.45;;;-0.40;99.90;;;;;;5148490;27;20050;-64
2022/03/06 05:08:16;;;;;;;18.30;11.13;;;-0.30;99.90;;;;;;5151584;27;20042;-64
2022/03/06 05:10:42;;;;;;;19.08;12.13;;;-0.40;99.90;;;;;;5149849;27;20046;-64
2022/03/06 05:13:09;;;;;;;16.00;11.35;;;-0.40;99.90;;;;;;5151905;27;20050;-64
2022/03/06 05:15:35;;;;;;;18.05;10.85;;;-0.40;99.90;;;;;;5151248;27;20039;-64
2022/03/06 05:18:01;;;;;;;19.35;11.52;;;-0.40;99.90;;;;;;5150893;27;20038;-64
2022/03/06 05:20:27;;;;;;;17.40;11.30;;;-0.20;99.90;;;;;;5152257;27;20034;-64
2022/03/06 05:22:53;;;;;;;15.60;10.52;;;-0.40;99.90;;;;;;5151736;27;20046;-64
2022/03/06 05:25:19;;;;;;;19.50;11.52;;;-0.40;99.90;;;;;;5150496;27;20043;-64
2022/03/06 05:27:45;;;;;;;14.70;10.45;;;-0.40;99.90;;;;;;5150557;27;20047;-64
2022/03/06 05:30:12;;;;;;;15.90;10.68;;;-0.40;99.90;;;;;;5151490;27;20047;-64
2022/03/06 05:32:38;;;;;;;16.52;10.93;;;-0.40;99.90;;;;;;5153083;27;20071;-64
2022/03/06 05:35:04;;;;;;;15.43;10.15;;;-0.40;99.90;;;;;;5151542;27;20049;-64
2022/03/06 05:37:30;;;;;;;12.77;9.27;;;-0.40;99.90;;;;;;5151885;27;20091;-64
2022/03/06 05:39:56;;;;;;;12.43;8.32;;;-0.40;99.90;;;;;;5153090;27;20035;-64
2022/03/06 05:42:22;;;;;;;14.48;9.27;;;-0.40;99.90;;;;;;5152864;27;20057;-64
2022/03/06 05:44:47;;;;;;;17.25;10.00;;;-0.40;99.90;;;;;;5150972;27;20122;-64
2022/03/06 05:47:13;;;;;;;13.80;9.18;;;-0.40;99.90;;;;;;5152281;27;20121;-64
2022/03/06 05:49:39;;;;;;;16.77;9.20;;;-0.40;99.90;;;;;;5152400;27;20144;-64
2022/03/06 05:52:05;;;;;;;16.33;9.02;;;-0.50;99.90;;;;;;5150930;27;20031;-64
2022/03/06 05:54:31;;;;;;;15.75;8.55;;;-0.40;99.90;;;;;;5149910;27;20035;-64
2022/03/06 05:56:57;;;;;;;15.95;8.95;;;-0.40;99.90;;;;;;5152794;27;20395;-64
2022/03/06 05:59:23;;;;;;;14.32;8.70;;;-0.40;99.90;;;;;;5150971;27;20050;-64
2022/03/06 06:01:49;;;;;;;13.27;8.10;;;-0.40;99.90;;;;;;5131875;27;20030;-64
2022/03/06 06:04:14;;;;;;;12.20;7.55;;;-0.30;99.90;;;;;;5149795;27;20042;-64
2022/03/06 06:06:40;;;;;;;13.27;8.43;;;-0.30;99.90;;;;;;5152011;27;20038;-64
2022/03/06 06:09:06;;;;;;;13.18;7.60;;;-0.30;99.90;;;;;;5151881;27;20034;-64
2022/03/06 06:11:32;;;;;;;12.85;8.20;;;-0.30;99.90;;;;;;5150893;27;20078;-64
2022/03/06 06:13:57;;;;;;;14.38;8.35;;;-0.30;99.90;;;;;;5151670;27;21242;-64
2022/03/06 06:16:23;;;;;;;14.93;7.70;;;-0.30;99.90;;;;;;5149083;27;20046;-64
2022/03/06 06:18:49;;;;;;;12.02;7.40;;;-0.20;99.90;;;;;;5149372;27;20391;-64
2022/03/06 06:21:16;;;;;;;10.50;7.28;;;-0.20;99.90;;;;;;5148082;27;20051;-64
2022/03/06 06:23:42;;;;;;;10.18;5.72;;;-0.20;99.90;;;;;;5150544;27;20108;-64
2022/03/06 06:26:08;;;;;;;13.40;6.93;;;-0.20;99.90;;;;;;5148344;27;20606;-64
2022/03/06 06:28:34;;;;;;;10.63;6.78;;;-0.10;99.90;;;;;;5149514;27;20051;-64
2022/03/06 06:31:00;;;;;;;11.63;6.32;;;-0.10;99.90;;;;;;5151587;27;20030;-64
2022/03/06 06:33:27;;;;;;;11.80;6.25;;;0.20;99.90;;;;;;5150736;27;20672;-64
2022/03/06 06:35:52;;;;;;;11.98;6.72;;;-0.10;99.90;;;;;;5148347;27;20035;-64
2022/03/06 06:38:20;;;;;;;10.25;6.53;;;-0.10;99.90;;;;;;5150402;27;20039;-64
2022/03/06 06:40:47;;;;;;;11.27;5.65;;;0.00;99.90;;;;;;5150070;27;20424;-64
2022/03/06 06:43:13;;;;;;;10.70;6.35;;;0.00;99.90;;;;;;5147962;27;20057;-64
2022/03/06 06:45:39;;;;;;;10.35;6.00;;;0.00;99.90;;;;;;5150459;27;20121;-64
2022/03/06 06:48:05;;;;;;;11.82;5.85;;;0.00;99.90;;;;;;5150858;27;20035;-64
2022/03/06 06:50:32;;;;;;;13.52;6.90;;;0.00;99.90;;;;;;5149734;27;20063;-64
2022/03/06 06:52:57;;;;;;;9.43;6.13;;;0.10;99.90;;;;;;5147863;27;20058;-64
2022/03/06 06:55:23;;;;;;;9.00;5.90;;;0.10;99.90;;;;;;5149134;27;20039;-64
2022/03/06 06:57:49;;;;;;;9.60;6.13;;;0.20;99.90;;;;;;5150066;27;20030;-64
2022/03/06 07:00:15;;;;;;;8.82;5.75;;;0.20;99.90;;;;;;5149345;27;20034;-64
2022/03/06 07:02:42;;;;;;;12.32;5.50;;;0.20;99.90;;;;;;5149033;27;20508;-64
2022/03/06 07:05:09;;;;;;;9.63;5.78;;;0.30;99.90;;;;;;5150372;27;20442;-64
2022/03/06 07:07:35;;;;;;;9.55;5.55;;;1.00;99.90;;;;;;5147999;27;20451;-64
2022/03/06 07:10:01;;;;;;;9.68;5.60;;;0.40;99.90;;;;;;5148034;27;20034;-64
2022/03/06 07:12:27;;;;;;;9.10;5.63;;;0.40;99.90;;;;;;5149591;27;20050;-64
2022/03/06 07:14:52;;;;;;;11.18;6.65;;;0.60;99.90;;;;;;5148953;27;20045;-64
2022/03/06 07:17:18;;;;;;;9.88;6.10;;;0.40;99.90;;;;;;5150292;27;20050;-64
2022/03/06 07:19:44;;;;;;;9.80;5.35;;;0.50;99.90;;;;;;5150847;27;20034;-64
2022/03/06 07:22:10;;;;;;;8.18;5.20;;;0.50;99.90;;;;;;5148943;27;20156;-64
2022/03/06 07:24:36;;;;;;;9.52;5.28;;;0.50;99.90;;;;;;5150489;27;20176;-64
2022/03/06 07:27:02;;;;;;;7.90;5.18;;;0.50;99.90;;;;;;5149830;27;20110;-64
2022/03/06 07:29:27;;;;;;;9.13;5.70;;;0.60;99.90;;;;;;5147953;27;20069;-64
2022/03/06 07:31:53;;;;;;;10.27;5.55;;;0.60;99.90;;;;;;5148109;27;20512;-64
2022/03/06 07:34:19;;;;;;;9.88;5.13;;;0.60;99.90;;;;;;5146821;27;20107;-64
2022/03/06 07:36:44;;;;;;;7.80;5.10;;;0.60;99.90;;;;;;5148962;27;20039;-64
2022/03/06 07:39:10;;;;;;;8.77;5.45;;;0.60;99.90;;;;;;5147650;27;20037;-64
2022/03/06 07:41:36;;;;;;;7.72;5.03;;;0.60;99.90;;;;;;5149558;27;20031;-64
2022/03/06 07:44:01;;;;;;;9.27;5.10;;;1.10;99.90;;;;;;5147126;27;20375;-64
2022/03/06 07:46:27;;;;;;;7.97;4.80;;;0.70;99.90;;;;;;5146502;27;20463;-64
2022/03/06 07:48:53;;;;;;;7.22;4.95;;;0.70;99.90;;;;;;5150071;27;20455;-64
2022/03/06 07:51:19;;;;;;;6.72;4.50;;;0.70;99.90;;;;;;5149186;27;20396;-64
2022/03/06 07:53:45;;;;;;;9.35;5.15;;;0.70;99.90;;;;;;5141837;27;20395;-64
2022/03/06 07:56:10;;;;;;;10.52;4.85;;;0.70;99.90;;;;;;5144321;27;20031;-64
2022/03/06 07:58:36;;;;;;;9.60;4.63;;;0.70;99.90;;;;;;5148372;27;20087;-64
2022/03/06 08:01:02;;;;;;;6.90;4.20;;;0.70;99.90;;;;;;5147000;27;20044;-64
2022/03/06 08:03:28;;;;;;;9.30;4.22;;;0.80;99.90;;;;;;5144510;27;20038;-64
2022/03/06 08:05:53;;;;;;;7.97;4.05;;;0.80;99.90;;;;;;5147604;27;20038;-63
2022/03/06 08:08:19;;;;;;;6.38;4.00;;;0.90;99.90;;;;;;5148587;27;20077;-63
2022/03/06 08:10:45;;;;;;;6.55;3.97;;;1.00;99.90;;;;;;5146027;27;20027;-63
2022/03/06 08:13:11;;;;;;;8.70;3.80;;;1.10;99.90;;;;;;5143694;27;20109;-64
2022/03/06 08:15:37;;;;;;;9.95;4.03;;;1.10;99.90;;;;;;5148232;27;20122;-64
2022/03/06 08:18:03;;;;;;;6.95;4.00;;;1.20;99.90;;;;;;5124672;27;20034;-64
2022/03/06 08:20:28;;;;;;;7.95;3.70;;;1.20;99.90;;;;;;5146920;27;20118;-64
2022/03/06 08:22:54;;;;;;;7.85;4.10;;;1.30;99.90;;;;;;5145559;27;20487;-64
2022/03/06 08:25:20;;;;;;;8.30;3.92;;;1.30;99.90;;;;;;5148132;27;20046;-64
2022/03/06 08:27:46;;;;;;;7.63;3.83;;;1.40;99.90;;;;;;5145518;27;20070;-64
2022/03/06 08:30:13;;;;;;;5.57;3.25;;;1.50;99.90;;;;;;5149322;27;20077;-64
2022/03/06 08:32:39;;;;;;;6.63;3.70;;;1.60;99.90;;;;;;5147958;27;21181;-64
2022/03/06 08:35:07;;;;;;;4.80;3.17;;;1.70;99.90;;;;;;5146283;27;20043;-64
2022/03/06 08:37:33;;;;;;;6.25;3.00;;;1.70;99.90;;;;;;5148455;27;20470;-64
2022/03/06 08:39:59;;;;;;;6.28;3.08;;;1.80;99.90;;;;;;5148229;27;20031;-64
2022/03/06 08:42:25;;;;;;;6.80;3.22;;;1.90;99.90;;;;;;5147221;27;20071;-64
2022/03/06 08:44:51;;;;;;;6.72;3.05;;;2.20;99.90;;;;;;5147990;27;20038;-64
2022/03/06 08:47:17;;;;;;;6.43;3.17;;;2.10;99.90;;;;;;5148214;27;20038;-64
2022/03/06 08:49:42;;;;;;;8.50;3.00;;;2.60;99.90;;;;;;5148348;27;20057;-64
2022/03/06 08:52:08;;;;;;;4.63;2.70;;;2.20;99.90;;;;;;5145138;27;20047;-64
2022/03/06 08:54:34;;;;;;;5.47;2.85;;;2.50;99.90;;;;;;5146089;27;20042;-64
2022/03/06 08:57:00;;;;;;;4.88;2.65;;;2.30;99.90;;;;;;5148644;27;20127;-64
2022/03/06 08:59:25;;;;;;;5.03;2.85;;;2.30;99.90;;;;;;5142698;27;20558;-64
2022/03/06 09:01:55;;;;;;;6.55;2.97;;;2.40;99.90;;;;;;5146760;27;20034;-64
2022/03/06 09:04:25;;;;;;;7.78;3.28;;;3.00;99.90;;;;;;5147918;27;20076;-65
2022/03/06 09:06:52;;;;;;;5.43;2.92;;;2.50;99.90;;;;;;5147117;27;20489;-64
2022/03/06 09:09:18;;;;;;;5.30;3.30;;;2.60;99.90;;;;;;5144038;27;20047;-64
2022/03/06 09:11:45;;;;;;;4.35;2.53;;;2.60;99.90;;;;;;5148732;27;20667;-64
2022/03/06 09:14:11;;;;;;;5.65;2.50;;;2.70;99.90;;;;;;5147391;27;20089;-64
2022/03/06 09:16:37;;;;;;;5.95;2.63;;;2.80;99.90;;;;;;5148243;27;20043;-64
2022/03/06 09:19:03;;;;;;;5.78;2.60;;;3.10;99.90;;;;;;5143788;27;20173;-64
2022/03/06 09:21:29;;;;;;;4.78;2.63;;;3.10;99.90;;;;;;5146414;27;20122;-64
2022/03/06 09:23:55;;;;;;;4.32;2.80;;;3.10;99.90;;;;;;5147898;27;20397;-64
2022/03/06 09:26:20;;;;;;;5.88;3.00;;;3.10;99.90;;;;;;5146892;27;20065;-64
2022/03/06 09:28:46;;;;;;;4.78;2.50;;;3.90;99.90;;;;;;5148503;27;20034;-64
2022/03/06 09:31:12;;;;;;;5.07;2.80;;;3.20;99.90;;;;;;5143276;27;20043;-64
2022/03/06 09:33:37;;;;;;;4.85;2.95;;;3.20;99.90;;;;;;5146496;27;20085;-64
2022/03/06 09:36:04;;;;;;;5.55;2.97;;;3.30;99.90;;;;;;5147918;27;20473;-64
2022/03/06 09:38:29;;;;;;;6.47;2.95;;;3.30;99.90;;;;;;5145097;27;20039;-65
2022/03/06 09:41:02;;;;;;;3.58;2.75;;;3.40;99.90;;;;;;5148969;27;20058;-64
2022/03/06 09:43:29;;;;;;;5.85;3.45;;;3.40;99.90;;;;;;5144470;27;20039;-64
2022/03/06 09:46:04;;;;;;;5.00;3.30;;;3.40;99.90;;;;;;5146232;27;20137;-65
2022/03/06 09:48:30;;;;;;;5.95;3.55;;;3.40;99.90;;;;;;5147799;27;20066;-64
2022/03/06 09:50:57;;;;;;;5.60;4.47;;;3.50;99.90;;;;;;5127560;27;20090;-64
2022/03/06 09:53:23;;;;;;;4.18;2.97;;;3.50;99.90;;;;;;5150184;27;20039;-64
2022/03/06 09:55:49;;;;;;;5.60;2.90;;;3.60;99.90;;;;;;5149298;27;20051;-64
2022/03/06 09:58:15;;;;;;;7.07;3.28;;;3.80;99.90;;;;;;5150330;27;20070;-65
2022/03/06 10:00:41;;;;;;;4.57;3.00;;;3.80;99.90;;;;;;5148148;27;20042;-64
2022/03/06 10:03:07;;;;;;;6.30;3.65;;;3.70;99.90;;;;;;5149881;27;20027;-64
2022/03/06 10:05:38;;;;;;;4.53;2.88;;;3.90;99.90;;;;;;5151491;27;20471;-65
2022/03/06 10:08:17;;;;;;;6.63;3.10;;;3.80;99.90;;;;;;5147520;27;20115;-64
2022/03/06 10:10:44;;;;;;;5.18;3.15;;;3.80;99.90;;;;;;5150996;27;20046;-65
2022/03/06 10:13:34;;;;;;;4.40;2.67;;;3.80;99.90;;;;;;5151652;27;20482;-65
2022/03/06 10:16:15;;;;;;;5.78;2.70;;;3.80;99.90;;;;;;5149021;27;20095;-64
2022/03/06 10:18:45;;;;;;;4.03;3.13;;;3.90;99.90;;;;;;5148487;27;20035;-64
2022/03/06 10:21:33;;;;;;;4.47;3.10;;;4.00;99.90;;;;;;5150084;27;20121;-65
2022/03/06 10:24:01;;;;;;;5.63;3.15;;;3.90;99.90;;;;;;5150509;27;20039;-64
2022/03/06 10:26:29;;;;;;;4.60;2.65;;;4.00;99.90;;;;;;5150728;27;20042;-64
2022/03/06 10:29:09;;;;;;;5.22;3.00;;;4.40;99.90;;;;;;5146176;27;20043;-64
2022/03/06 10:31:36;;;;;;;5.15;2.58;;;4.10;99.90;;;;;;5152011;27;20038;-64
2022/03/06 10:34:10;;;;;;;4.20;2.50;;;4.10;99.90;;;;;;5150290;27;20035;-65
2022/03/06 10:36:47;;;;;;;4.63;2.53;;;4.10;99.90;;;;;;5150763;27;20394;-64
2022/03/06 10:39:20;;;;;;;4.75;2.50;;;4.20;99.90;;;;;;5146280;27;20038;-64
2022/03/06 10:41:52;;;;;;;4.25;2.20;;;4.20;99.90;;;;;;5148688;27;20026;-65
2022/03/06 10:44:20;;;;;;;4.03;2.30;;;4.20;99.90;;;;;;5148011;27;20038;-65
2022/03/06 10:47:01;;;;;;;4.53;2.67;;;4.30;99.90;;;;;;5149051;27;20463;-64
2022/03/06 10:49:27;;;;;;;3.70;2.50;;;4.30;99.90;;;;;;5148069;27;20027;-64
2022/03/06 10:51:54;;;;;;;5.63;2.00;;;4.60;99.90;;;;;;5149955;27;20095;-65
2022/03/06 10:54:20;;;;;;;2.83;2.03;;;4.40;99.90;;;;;;5148541;27;20049;-65
2022/03/06 10:56:50;;;;;;;5.35;2.42;;;4.40;99.60;;;;;;5149094;27;20497;-65
2022/03/06 10:59:25;;;;;;;3.75;2.28;;;4.40;99.10;;;;;;5147861;27;20043;-65
2022/03/06 11:01:51;;;;;;;5.72;2.33;;;4.90;98.40;;;;;;5149508;27;20490;-65
2022/03/06 11:04:18;;;;;;;4.60;1.85;;;4.40;98.30;;;;;;5149975;27;20035;-64
2022/03/06 11:06:46;;;;;;;5.22;2.13;;;4.50;97.40;;;;;;5147475;27;20455;-64
2022/03/06 11:09:16;;;;;;;5.10;2.22;;;4.60;96.60;;;;;;5145525;27;20074;-65
2022/03/06 11:11:44;;;;;;;3.97;2.10;;;4.60;96.70;;;;;;5151037;27;20465;-64
2022/03/06 11:14:11;;;;;;;4.45;2.47;;;4.60;97.20;;;;;;5142928;27;20223;-64
2022/03/06 11:16:38;;;;;;;3.70;2.10;;;4.70;96.90;;;;;;5142401;27;20035;-64
2022/03/06 11:19:05;;;;;;;4.15;2.30;;;4.80;96.60;;;;;;5145799;27;20038;-64
2022/03/06 11:21:33;;;;;;;3.08;2.15;;;4.80;96.60;;;;;;5148901;27;20046;-64
2022/03/06 11:24:16;;;;;;;4.97;2.15;;;4.80;95.80;;;;;;5141040;27;20043;-64
2022/03/06 11:27:30;;;;;;;3.03;1.95;;;4.80;95.70;;;;;;5123804;27;20081;-64
2022/03/06 11:30:30;;;;;;;6.38;2.55;;;4.80;94.60;;;;;;5140864;27;20051;-65
2022/03/06 11:33:07;;;;;;;5.13;2.47;;;4.90;95.30;;;;;;5145291;27;20475;-65
2022/03/06 11:35:38;;;;;;;3.83;2.30;;;4.90;95.70;;;;;;5146667;27;20046;-64
2022/03/06 11:38:05;;;;;;;3.53;2.17;;;5.00;94.60;;;;;;5145710;27;20047;-64
2022/03/06 11:40:45;;;;;;;2.97;2.28;;;5.00;94.70;;;;;;5149106;27;20039;-65
2022/03/06 11:43:32;;;;;;;4.03;2.55;;;5.10;93.80;;;;;;5149428;27;20034;-64
2022/03/06 11:46:08;;;;;;;5.28;2.28;;;5.10;93.50;;;;;;5129099;27;20077;-65
2022/03/06 11:48:34;;;;;;;6.00;2.40;;;5.20;93.80;;;;;;5141396;27;20479;-64
2022/03/06 11:51:15;;;;;;;3.53;2.20;;;5.20;93.10;;;;;;5147602;27;20087;-65
2022/03/06 11:54:14;;;;;;;3.35;2.10;;;5.10;93.50;;;;;;5148265;27;20114;-65
2022/03/06 11:56:46;;;;;;;4.15;2.08;;;5.40;91.10;;;;;;5148502;27;20039;-65
2022/03/06 11:59:23;;;;;;;6.60;2.28;;;5.30;92.40;;;;;;5143095;27;20050;-64
2022/03/06 12:01:51;;;;;;;4.93;2.00;;;5.30;91.80;;;;;;5149539;27;20027;-65
2022/03/06 12:04:34;;;;;;;5.70;2.03;;;5.40;92.00;;;;;;5149400;27;20534;-65
2022/03/06 12:07:05;;;;;;;3.33;2.00;;;5.50;91.50;;;;;;5146686;27;20038;-64
2022/03/06 12:09:33;;;;;;;4.30;1.80;;;5.50;90.60;;;;;;5148116;27;20072;-64
2022/03/06 12:12:10;;;;;;;4.03;2.33;;;5.50;90.70;;;;;;5146848;27;20034;-65
2022/03/06 12:14:57;;;;;;;4.18;2.40;;;5.60;91.20;;;;;;5145071;27;20043;-64
2022/03/06 12:17:43;;;;;;;5.32;2.28;;;5.50;92.00;;;;;;5145264;27;20082;-64
2022/03/06 12:20:10;;;;;;;5.93;2.40;;;5.50;92.90;;;;;;5148606;27;20035;-65
2022/03/06 12:22:43;;;;;;;5.22;2.70;;;5.50;92.80;;;;;;5145237;27;20046;-65
2022/03/06 12:25:08;;;;;;;3.83;2.10;;;5.50;93.00;;;;;;5149681;27;20043;-65
2022/03/06 12:27:36;;;;;;;5.32;2.63;;;5.50;93.50;;;;;;5144835;27;20042;-65
2022/03/06 12:30:10;;;;;;;4.60;2.45;;;5.70;93.60;;;;;;5147752;27;20367;-65
2022/03/06 12:32:38;;;;;;;5.07;2.33;;;5.70;93.60;;;;;;5128172;27;20054;-65
2022/03/06 12:35:12;;;;;;;3.50;2.30;;;5.90;92.80;;;;;;5148879;27;20054;-64
2022/03/06 12:37:51;;;;;;;4.78;2.47;;;5.90;92.50;;;;;;5147996;27;20652;-65
2022/03/06 12:40:22;;;;;;;4.53;2.28;;;5.80;92.90;;;;;;5145318;27;20046;-65
2022/03/06 12:42:59;;;;;;;3.75;2.10;;;5.80;92.40;;;;;;5148374;27;20071;-64
2022/03/06 12:45:25;;;;;;;4.50;2.30;;;6.20;91.90;;;;;;5149219;27;20494;-65
2022/03/06 12:47:51;;;;;;;4.35;2.30;;;6.00;92.30;;;;;;5148258;27;20035;-65
2022/03/06 12:50:19;;;;;;;3.70;2.50;;;5.90;93.10;;;;;;5146062;27;20471;-65
2022/03/06 12:52:46;;;;;;;4.43;2.50;;;6.00;92.60;;;;;;5149008;27;20049;-64
2022/03/06 12:55:17;;;;;;;3.92;2.33;;;5.90;92.40;;;;;;5148892;27;20514;-64
2022/03/06 12:57:50;;;;;;;5.10;1.98;;;5.90;92.40;;;;;;5146935;27;20042;-64